createdAt,value
2023-04-26T00:00:30.306Z,40.17
2023-04-26T00:02:59.922Z,39.71
2023-04-26T00:05:26.995Z,39.83
2023-04-26T00:07:54.224Z,39.90
2023-04-26T00:10:21.108Z,40.25
2023-04-26T00:12:47.735Z,39.84
2023-04-26T00:15:14.141Z,39.88
2023-04-26T00:17:41.377Z,40.01
2023-04-26T00:20:10.440Z,39.87
2023-04-26T00:22:37.438Z,39.99
2023-04-26T00:25:04.179Z,40.11
2023-04-26T00:27:30.549Z,40.02
2023-04-26T00:29:56.997Z,40.31
2023-04-26T00:32:23.361Z,39.71
2023-04-26T00:34:49.714Z,40.02
2023-04-26T00:37:16.588Z,40.42
2023-04-26T00:39:42.998Z,40.06
2023-04-26T00:42:09.387Z,40.05
2023-04-26T00:44:36.285Z,40.00
2023-04-26T00:47:03.398Z,40.21
2023-04-26T00:49:30.049Z,40.05
2023-04-26T00:51:57.602Z,40.54
2023-04-26T00:54:25.765Z,39.92
2023-04-26T00:56:53.367Z,40.05
2023-04-26T00:59:21.316Z,40.41
2023-04-26T01:01:49.075Z,40.73
2023-04-26T01:04:15.979Z,40.25
2023-04-26T01:06:42.653Z,40.09
2023-04-26T01:09:10.828Z,40.67
2023-04-26T01:11:38.448Z,40.74
2023-04-26T01:14:06.310Z,40.58
2023-04-26T01:16:33.160Z,40.64
2023-04-26T01:19:07.657Z,41.09
2023-04-26T01:21:34.473Z,41.09
2023-04-26T01:24:01.416Z,40.41
2023-04-26T01:26:27.795Z,40.68
2023-04-26T01:28:54.314Z,40.72
2023-04-26T01:31:21.461Z,40.91
2023-04-26T01:33:47.819Z,40.77
2023-04-26T01:36:14.138Z,40.84
2023-04-26T01:38:40.502Z,41.29
2023-04-26T01:41:07.187Z,41.16
2023-04-26T01:43:33.584Z,40.95
2023-04-26T01:45:59.940Z,41.30
2023-04-26T01:48:26.350Z,41.39
2023-04-26T01:50:52.696Z,41.33
2023-04-26T01:53:19.299Z,41.09
2023-04-26T01:55:45.710Z,41.41
2023-04-26T01:58:12.295Z,41.63
2023-04-26T02:00:38.648Z,41.08
2023-04-26T02:03:05.038Z,41.66
2023-04-26T02:05:31.648Z,41.57
2023-04-26T02:07:58.232Z,41.62
2023-04-26T02:10:24.909Z,41.42
2023-04-26T02:12:51.308Z,41.89
2023-04-26T02:15:17.954Z,41.79
2023-04-26T02:17:44.532Z,41.83
2023-04-26T02:20:11.537Z,41.75
2023-04-26T02:22:38.189Z,41.50
2023-04-26T02:25:05.490Z,42.19
2023-04-26T02:27:32.904Z,41.87
2023-04-26T02:29:59.978Z,41.78
2023-04-26T02:32:26.392Z,41.85
2023-04-26T02:34:52.811Z,41.42
2023-04-26T02:37:19.422Z,41.63
2023-04-26T02:39:50.876Z,42.23
2023-04-26T02:42:17.477Z,41.49
2023-04-26T02:44:43.845Z,42.04
2023-04-26T02:47:11.145Z,41.52
2023-04-26T02:49:37.555Z,41.49
2023-04-26T02:52:04.137Z,42.02
2023-04-26T02:54:30.689Z,41.79
2023-04-26T02:56:58.354Z,41.95
2023-04-26T02:59:24.935Z,41.92
2023-04-26T03:01:51.349Z,41.83
2023-04-26T03:04:18.219Z,41.63
2023-04-26T03:06:44.937Z,41.63
2023-04-26T03:09:11.470Z,41.59
2023-04-26T03:11:37.776Z,42.03
2023-04-26T03:14:04.270Z,41.60
2023-04-26T03:16:30.696Z,42.03
2023-04-26T03:18:57.033Z,41.84
2023-04-26T03:21:23.651Z,41.76
2023-04-26T03:23:50.003Z,41.79
2023-04-26T03:26:16.643Z,42.22
2023-04-26T03:28:43.008Z,42.17
2023-04-26T03:31:09.383Z,41.98
2023-04-26T03:33:36.019Z,42.00
2023-04-26T03:36:02.778Z,41.71
2023-04-26T03:38:29.334Z,42.54
2023-04-26T03:40:55.940Z,42.12
2023-04-26T03:43:22.297Z,42.12
2023-04-26T03:45:50.231Z,42.28
2023-04-26T03:48:17.215Z,42.08
2023-04-26T03:50:44.966Z,42.50
2023-04-26T03:53:12.042Z,42.07
2023-04-26T03:55:38.540Z,42.28
2023-04-26T03:58:07.782Z,42.08
2023-04-26T04:00:37.529Z,42.23
2023-04-26T04:03:04.576Z,42.42
2023-04-26T04:05:31.017Z,42.60
2023-04-26T04:07:57.536Z,41.99
2023-04-26T04:10:23.990Z,42.28
2023-04-26T04:12:54.053Z,42.19
2023-04-26T04:15:21.310Z,42.53
2023-04-26T04:17:47.911Z,42.38
2023-04-26T04:20:14.356Z,42.37
2023-04-26T04:22:40.860Z,42.80
2023-04-26T04:25:09.121Z,42.88
2023-04-26T04:27:36.852Z,42.74
2023-04-26T04:30:07.182Z,42.83
2023-04-26T04:32:33.870Z,42.43
2023-04-26T04:35:00.611Z,42.58
2023-04-26T04:37:27.566Z,42.74
2023-04-26T04:39:56.647Z,42.76
2023-04-26T04:42:23.580Z,42.34
2023-04-26T04:44:51.335Z,42.48
2023-04-26T04:47:17.994Z,42.46
2023-04-26T04:49:44.918Z,42.97
2023-04-26T04:52:11.476Z,42.99
2023-04-26T04:54:37.876Z,43.00
2023-04-26T04:57:04.277Z,42.80
2023-04-26T04:59:31.491Z,43.50
2023-04-26T05:01:58.461Z,43.01
2023-04-26T05:04:25.378Z,43.03
2023-04-26T05:06:52.359Z,42.94
2023-04-26T05:09:18.950Z,43.16
2023-04-26T05:11:46.005Z,43.22
2023-04-26T05:14:12.654Z,43.18
2023-04-26T05:16:39.373Z,43.76
2023-04-26T05:19:08.038Z,43.70
2023-04-26T05:21:35.912Z,43.76
2023-04-26T05:24:02.255Z,43.69
2023-04-26T05:26:28.928Z,43.45
2023-04-26T05:28:55.439Z,43.77
2023-04-26T05:31:21.890Z,43.45
2023-04-26T05:33:48.503Z,43.28
2023-04-26T05:36:14.947Z,43.33
2023-04-26T05:38:41.457Z,43.41
2023-04-26T05:41:07.793Z,43.15
2023-04-26T05:43:34.604Z,43.50
2023-04-26T05:46:02.247Z,43.18
2023-04-26T05:48:30.024Z,43.60
2023-04-26T05:50:56.469Z,43.56
2023-04-26T05:53:22.893Z,43.76
2023-04-26T05:55:49.321Z,43.44
2023-04-26T05:58:15.813Z,43.68
2023-04-26T06:00:43.789Z,43.28
2023-04-26T06:03:10.941Z,43.56
2023-04-26T06:05:41.233Z,43.52
2023-04-26T06:08:08.017Z,43.58
2023-04-26T06:10:35.888Z,43.54
2023-04-26T06:13:02.501Z,43.76
2023-04-26T06:15:28.937Z,43.95
2023-04-26T06:17:55.353Z,43.65
2023-04-26T06:20:22.104Z,43.64
2023-04-26T06:22:48.782Z,43.79
2023-04-26T06:25:15.437Z,43.42
2023-04-26T06:27:42.058Z,43.47
2023-04-26T06:30:09.036Z,43.72
2023-04-26T06:32:36.324Z,43.87
2023-04-26T06:35:03.049Z,43.65
2023-04-26T06:37:29.412Z,43.86
2023-04-26T06:39:55.821Z,43.49
2023-04-26T06:42:22.378Z,44.17
2023-04-26T06:44:48.782Z,43.48
2023-04-26T06:47:15.167Z,43.63
2023-04-26T06:49:42.400Z,43.69
2023-04-26T06:52:09.670Z,43.50
2023-04-26T06:54:40.247Z,43.99
2023-04-26T06:57:16.668Z,43.28
2023-04-26T06:59:43.013Z,43.55
2023-04-26T07:02:11.011Z,43.40
2023-04-26T07:04:37.709Z,43.34
2023-04-26T07:07:04.540Z,42.73
2023-04-26T07:09:31.942Z,43.17
2023-04-26T07:11:58.291Z,42.30
2023-04-26T07:14:24.872Z,42.55
2023-04-26T07:16:51.361Z,42.59
2023-04-26T07:19:18.021Z,42.34
2023-04-26T07:21:44.513Z,42.52
2023-04-26T07:24:11.115Z,42.26
2023-04-26T07:26:37.970Z,42.47
2023-04-26T07:29:04.428Z,42.76
2023-04-26T07:31:32.044Z,42.68
2023-04-26T07:34:00.427Z,42.44
2023-04-26T07:36:27.769Z,42.19
2023-04-26T07:38:54.566Z,41.58
2023-04-26T07:41:21.450Z,41.73
2023-04-26T07:43:47.845Z,41.92
2023-04-26T07:46:14.537Z,41.44
2023-04-26T07:48:40.928Z,40.84
2023-04-26T07:51:12.235Z,40.14
2023-04-26T07:53:39.712Z,40.03
2023-04-26T07:56:10.507Z,40.29
2023-04-26T07:58:38.945Z,39.58
2023-04-26T08:01:05.863Z,39.66
2023-04-26T08:03:32.765Z,39.30
2023-04-26T08:05:59.836Z,39.40
2023-04-26T08:08:26.984Z,39.24
2023-04-26T08:10:53.606Z,39.49
2023-04-26T08:13:20.228Z,39.17
2023-04-26T08:15:47.196Z,39.32
2023-04-26T08:18:13.633Z,38.59
2023-04-26T08:20:40.117Z,38.70
2023-04-26T08:23:10.019Z,38.69
2023-04-26T08:25:36.428Z,38.55
2023-04-26T08:28:02.942Z,38.32
2023-04-26T08:30:29.517Z,37.64
2023-04-26T08:32:56.625Z,37.71
2023-04-26T08:35:23.325Z,38.04
2023-04-26T08:37:49.957Z,37.56
2023-04-26T08:40:22.882Z,37.15
2023-04-26T08:42:49.283Z,37.50
2023-04-26T08:45:16.587Z,37.44
2023-04-26T08:48:06.366Z,36.53
2023-04-26T08:50:34.684Z,36.98
2023-04-26T08:53:02.468Z,36.89
2023-04-26T08:55:29.659Z,37.15
2023-04-26T08:57:56.604Z,37.20
2023-04-26T09:00:23.532Z,36.99
2023-04-26T09:02:52.809Z,36.77
2023-04-26T09:05:24.939Z,36.70
2023-04-26T09:07:56.266Z,36.71
2023-04-26T09:10:23.316Z,36.76
2023-04-26T09:12:53.351Z,36.57
2023-04-26T09:15:23.001Z,36.38
2023-04-26T09:17:52.758Z,36.72
2023-04-26T09:20:29.102Z,35.99
2023-04-26T09:23:06.777Z,35.75
2023-04-26T09:25:33.503Z,36.42
2023-04-26T09:28:01.084Z,36.11
2023-04-26T09:30:28.584Z,36.21
2023-04-26T09:32:55.124Z,35.96
2023-04-26T09:35:22.907Z,35.71
2023-04-26T09:38:02.961Z,34.53
2023-04-26T09:40:36.984Z,34.88
2023-04-26T09:43:06.135Z,34.86
2023-04-26T09:45:34.355Z,34.93
2023-04-26T09:48:21.891Z,34.41
2023-04-26T09:50:50.555Z,35.51
2023-04-26T09:53:31.279Z,34.88
2023-04-26T09:56:10.084Z,34.55
2023-04-26T09:58:40.639Z,34.66
2023-04-26T10:01:08.722Z,34.95
2023-04-26T10:03:36.029Z,34.89
2023-04-26T10:06:04.282Z,35.20
2023-04-26T10:08:34.679Z,34.40
2023-04-26T10:11:04.094Z,34.63
2023-04-26T10:13:34.846Z,34.11
2023-04-26T10:16:08.181Z,34.71
2023-04-26T10:18:34.607Z,34.73
2023-04-26T10:21:17.301Z,34.27
2023-04-26T10:23:44.769Z,34.26
2023-04-26T10:26:53.260Z,33.81
2023-04-26T10:30:07.419Z,33.59
2023-04-26T10:32:56.537Z,33.72
2023-04-26T10:35:30.985Z,33.55
2023-04-26T10:38:18.405Z,33.79
2023-04-26T10:40:45.768Z,34.09
2023-04-26T10:43:15.122Z,33.58
2023-04-26T10:45:43.219Z,34.15
2023-04-26T10:48:18.925Z,33.44
2023-04-26T10:51:10.424Z,33.45
2023-04-26T10:53:46.119Z,33.35
2023-04-26T10:56:33.528Z,33.45
2023-04-26T10:59:33.367Z,33.19
2023-04-26T11:02:01.279Z,33.97
2023-04-26T11:04:50.906Z,33.06
2023-04-26T11:07:37.285Z,33.06
2023-04-26T11:10:04.041Z,33.76
2023-04-26T11:12:30.503Z,33.41
2023-04-26T11:14:59.913Z,32.88
2023-04-26T11:17:26.566Z,33.43
2023-04-26T11:19:53.203Z,33.84
2023-04-26T11:22:22.147Z,33.06
2023-04-26T11:24:49.793Z,33.65
2023-04-26T11:27:16.708Z,33.40
2023-04-26T11:29:44.449Z,33.83
2023-04-26T11:32:13.059Z,33.17
2023-04-26T11:34:44.434Z,33.90
2023-04-26T11:37:11.691Z,33.67
2023-04-26T11:39:38.106Z,33.27
2023-04-26T11:42:09.043Z,33.16
2023-04-26T11:44:37.757Z,33.06
2023-04-26T11:47:06.645Z,33.17
2023-04-26T11:49:35.560Z,33.10
2023-04-26T11:52:04.944Z,32.92
2023-04-26T11:54:33.081Z,33.13
2023-04-26T11:57:01.050Z,33.16
2023-04-26T11:59:29.181Z,32.78
2023-04-26T12:01:57.284Z,33.11
2023-04-26T12:04:30.378Z,32.40
2023-04-26T12:06:58.516Z,33.23
2023-04-26T12:09:28.379Z,32.81
2023-04-26T12:12:08.175Z,32.92
2023-04-26T12:14:36.575Z,33.14
2023-04-26T12:17:04.350Z,32.71
2023-04-26T12:19:34.602Z,32.16
2023-04-26T12:22:01.134Z,32.45
2023-04-26T12:24:30.669Z,32.23
2023-04-26T12:26:57.132Z,32.02
2023-04-26T12:29:23.508Z,32.15
2023-04-26T12:31:50.114Z,31.74
2023-04-26T12:34:16.730Z,31.92
2023-04-26T12:36:46.400Z,32.07
2023-04-26T12:39:14.348Z,32.31
2023-04-26T12:41:44.243Z,32.15
2023-04-26T12:44:11.947Z,32.22
2023-04-26T12:46:38.658Z,31.94
2023-04-26T12:49:05.322Z,31.85
2023-04-26T12:51:34.579Z,32.33
2023-04-26T12:54:01.236Z,32.32
2023-04-26T12:56:29.530Z,31.68
2023-04-26T12:58:56.124Z,31.69
2023-04-26T13:01:22.585Z,31.85
2023-04-26T13:03:49.156Z,31.54
2023-04-26T13:06:16.053Z,31.74
2023-04-26T13:08:42.457Z,31.69
2023-04-26T13:11:08.879Z,31.81
2023-04-26T13:13:42.943Z,31.91
2023-04-26T13:16:09.978Z,32.06
2023-04-26T13:18:36.371Z,32.21
2023-04-26T13:21:04.191Z,32.29
2023-04-26T13:23:30.829Z,32.20
2023-04-26T13:25:57.123Z,32.26
2023-04-26T13:28:23.466Z,31.45
2023-04-26T13:33:16.485Z,31.46
2023-04-26T13:35:42.895Z,31.48
2023-04-26T13:38:09.314Z,31.41
2023-04-26T13:40:37.534Z,31.20
2023-04-26T13:43:03.952Z,31.15
2023-04-26T13:45:30.657Z,31.38
2023-04-26T13:47:57.032Z,31.45
2023-04-26T13:50:23.457Z,30.80
2023-04-26T13:52:50.911Z,30.90
2023-04-26T13:55:17.426Z,31.00
2023-04-26T13:57:43.741Z,30.95
2023-04-26T14:00:11.864Z,30.54
2023-04-26T14:02:38.769Z,31.16
2023-04-26T14:05:05.672Z,31.04
2023-04-26T14:07:32.134Z,30.78
2023-04-26T14:09:58.518Z,30.97
2023-04-26T14:12:25.231Z,30.38
2023-04-26T14:14:51.691Z,30.63
2023-04-26T14:17:18.095Z,30.86
2023-04-26T14:19:44.451Z,30.26
2023-04-26T14:22:12.745Z,30.38
2023-04-26T14:24:39.252Z,30.26
2023-04-26T14:27:05.839Z,30.36
2023-04-26T14:29:32.296Z,30.27
2023-04-26T14:31:58.773Z,30.12
2023-04-26T14:34:26.448Z,30.15
2023-04-26T14:36:53.035Z,30.28
2023-04-26T14:39:19.626Z,30.14
2023-04-26T14:41:46.520Z,30.38
2023-04-26T14:44:12.967Z,30.03
2023-04-26T14:46:39.655Z,29.85
2023-04-26T14:49:06.033Z,29.66
2023-04-26T14:51:32.654Z,29.73
2023-04-26T14:53:59.664Z,29.16
2023-04-26T14:56:26.243Z,29.81
2023-04-26T14:58:52.830Z,29.43
2023-04-26T15:01:19.166Z,29.21
2023-04-26T15:03:46.560Z,29.85
2023-04-26T15:06:13.009Z,29.63
2023-04-26T15:08:39.431Z,29.22
2023-04-26T15:11:06.110Z,29.62
2023-04-26T15:13:32.683Z,29.45
2023-04-26T15:16:06.004Z,29.18
2023-04-26T15:18:35.882Z,29.70
2023-04-26T15:21:02.246Z,29.32
2023-04-26T15:23:28.579Z,29.36
2023-04-26T15:25:54.932Z,29.43
2023-04-26T15:28:21.665Z,29.43
2023-04-26T15:30:49.312Z,29.24
2023-04-26T15:33:17.040Z,28.94
2023-04-26T15:35:45.934Z,29.22
2023-04-26T15:38:12.297Z,29.34
2023-04-26T15:40:38.725Z,29.11
2023-04-26T15:43:05.108Z,29.35
2023-04-26T15:45:31.460Z,29.37
2023-04-26T15:47:59.108Z,29.01
2023-04-26T15:50:25.630Z,29.12
2023-04-26T15:52:52.092Z,29.07
2023-04-26T15:55:18.682Z,29.15
2023-04-26T15:57:45.289Z,29.16
2023-04-26T16:00:14.126Z,28.95
2023-04-26T16:02:42.683Z,29.02
2023-04-26T16:05:09.522Z,29.23
2023-04-26T16:07:38.168Z,29.08
2023-04-26T16:10:08.966Z,28.96
2023-04-26T16:12:39.618Z,28.63
2023-04-26T16:15:09.632Z,28.45
2023-04-26T16:17:37.135Z,28.67
2023-04-26T16:20:07.024Z,29.32
2023-04-26T16:22:35.055Z,29.32
2023-04-26T16:25:03.824Z,29.04
2023-04-26T16:27:30.313Z,29.29
2023-04-26T16:29:59.203Z,29.43
2023-04-26T16:32:26.278Z,28.98
2023-04-26T16:34:53.149Z,29.39
2023-04-26T16:37:19.885Z,29.26
2023-04-26T16:39:46.510Z,29.61
2023-04-26T16:42:13.116Z,29.51
2023-04-26T16:44:40.943Z,29.56
2023-04-26T16:47:07.520Z,29.28
2023-04-26T16:49:34.581Z,29.56
2023-04-26T16:52:01.107Z,29.70
2023-04-26T16:54:27.666Z,29.28
2023-04-26T16:56:54.367Z,29.56
2023-04-26T16:59:21.092Z,29.71
2023-04-26T17:01:47.828Z,29.51
2023-04-26T17:04:14.783Z,29.81
2023-04-26T17:06:41.570Z,29.93
2023-04-26T17:09:09.138Z,29.73
2023-04-26T17:11:37.452Z,30.18
2023-04-26T17:14:04.698Z,29.91
2023-04-26T17:16:31.839Z,30.53
2023-04-26T17:18:58.725Z,30.33
2023-04-26T17:21:25.501Z,30.07
2023-04-26T17:23:52.234Z,30.36
2023-04-26T17:26:18.981Z,30.52
2023-04-26T17:28:45.377Z,30.25
2023-04-26T17:31:12.181Z,30.61
2023-04-26T17:33:38.671Z,30.59
2023-04-26T17:36:05.609Z,30.63
2023-04-26T17:38:32.038Z,30.30
2023-04-26T17:40:59.758Z,30.09
2023-04-26T17:43:26.191Z,30.65
2023-04-26T17:45:52.768Z,30.44
2023-04-26T17:48:19.236Z,30.31
2023-04-26T17:50:45.973Z,30.51
2023-04-26T17:53:12.338Z,30.19
2023-04-26T17:55:43.406Z,30.13
2023-04-26T17:58:10.438Z,30.29
2023-04-26T18:00:38.134Z,30.47
2023-04-26T18:03:06.709Z,30.29
2023-04-26T18:05:33.579Z,30.11
2023-04-26T18:08:11.308Z,30.65
2023-04-26T18:10:38.766Z,30.89
2023-04-26T18:13:06.968Z,30.97
2023-04-26T18:15:35.818Z,31.29
2023-04-26T18:18:05.510Z,31.14
2023-04-26T18:20:32.524Z,30.98
2023-04-26T18:22:59.087Z,31.04
2023-04-26T18:25:27.322Z,31.05
2023-04-26T18:27:57.078Z,30.97
2023-04-26T18:30:23.702Z,31.38
2023-04-26T18:32:52.186Z,31.00
2023-04-26T18:35:19.050Z,31.22
2023-04-26T18:37:45.712Z,31.06
2023-04-26T18:40:13.242Z,31.52
2023-04-26T18:42:40.020Z,31.55
2023-04-26T18:45:15.136Z,31.45
2023-04-26T18:47:41.762Z,31.71
2023-04-26T18:50:08.639Z,31.53
2023-04-26T18:52:38.893Z,31.96
2023-04-26T18:55:10.053Z,32.18
2023-04-26T18:57:36.945Z,32.02
2023-04-26T19:00:05.305Z,31.86
2023-04-26T19:02:36.210Z,31.98
2023-04-26T19:05:04.669Z,32.34
2023-04-26T19:07:31.880Z,32.14
2023-04-26T19:10:00.674Z,32.14
2023-04-26T19:12:29.260Z,32.08
2023-04-26T19:14:58.189Z,32.25
2023-04-26T19:17:24.981Z,32.40
2023-04-26T19:19:57.868Z,32.35
2023-04-26T19:22:26.924Z,32.32
2023-04-26T19:24:53.557Z,32.31
2023-04-26T19:27:24.860Z,32.75
2023-04-26T19:29:51.207Z,32.68
2023-04-26T19:32:23.149Z,32.95
2023-04-26T19:34:50.219Z,32.91
2023-04-26T19:37:20.423Z,32.90
2023-04-26T19:39:46.913Z,32.88
2023-04-26T19:42:16.155Z,32.79
2023-04-26T19:44:46.898Z,32.81
2023-04-26T19:47:16.028Z,33.00
2023-04-26T19:49:42.409Z,33.20
2023-04-26T19:52:08.866Z,33.20
2023-04-26T19:54:41.925Z,32.98
2023-04-26T19:57:10.461Z,33.05
2023-04-26T19:59:36.858Z,33.31
2023-04-26T20:02:03.774Z,32.94
2023-04-26T20:04:31.588Z,33.27
2023-04-26T20:07:03.371Z,33.25
2023-04-26T20:09:30.276Z,33.05
2023-04-26T20:12:02.485Z,33.30
2023-04-26T20:14:30.899Z,33.52
2023-04-26T20:17:02.017Z,33.78
2023-04-26T20:19:29.396Z,33.43
2023-04-26T20:21:59.513Z,33.39
2023-04-26T20:24:31.911Z,33.76
2023-04-26T20:27:01.130Z,34.04
2023-04-26T20:29:35.254Z,33.94
2023-04-26T20:32:01.679Z,33.92
2023-04-26T20:34:28.179Z,33.89
2023-04-26T20:36:55.229Z,34.12
2023-04-26T20:39:21.869Z,34.44
2023-04-26T20:41:48.664Z,34.30
2023-04-26T20:44:27.128Z,34.58
2023-04-26T20:46:53.636Z,34.29
2023-04-26T20:49:21.044Z,34.11
2023-04-26T20:51:47.439Z,34.26
2023-04-26T20:54:13.888Z,34.69
2023-04-26T20:56:42.937Z,34.54
2023-04-26T20:59:10.887Z,34.57
2023-04-26T21:01:37.328Z,34.59
2023-04-26T21:04:03.885Z,34.55
2023-04-26T21:06:31.093Z,34.68
2023-04-26T21:08:58.004Z,34.81
2023-04-26T21:11:24.641Z,35.02
2023-04-26T21:13:55.724Z,35.08
2023-04-26T21:16:22.189Z,34.78
2023-04-26T21:18:48.760Z,34.98
2023-04-26T21:21:15.430Z,35.03
2023-04-26T21:23:43.240Z,35.35
2023-04-26T21:26:09.688Z,35.58
2023-04-26T21:28:36.422Z,35.57
2023-04-26T21:31:09.322Z,35.29
2023-04-26T21:33:36.383Z,35.03
2023-04-26T21:36:07.689Z,34.97
2023-04-26T21:38:35.055Z,35.17
2023-04-26T21:41:01.401Z,35.63
2023-04-26T21:43:28.248Z,35.13
2023-04-26T21:46:00.748Z,35.32
2023-04-26T21:48:27.166Z,34.66
2023-04-26T21:50:53.624Z,34.95
2023-04-26T21:53:20.769Z,34.81
2023-04-26T21:55:52.726Z,35.43
2023-04-26T21:58:21.640Z,35.32
2023-04-26T22:00:49.745Z,34.96
2023-04-26T22:03:17.218Z,35.17
2023-04-26T22:05:44.544Z,34.77
2023-04-26T22:08:11.334Z,34.79
2023-04-26T22:10:39.040Z,34.87
2023-04-26T22:13:05.692Z,34.86
2023-04-26T22:15:33.199Z,35.23
2023-04-26T22:18:00.083Z,34.98
2023-04-26T22:20:26.796Z,34.97
2023-04-26T22:22:53.593Z,35.16
2023-04-26T22:25:20.596Z,35.60
2023-04-26T22:27:49.416Z,35.67
2023-04-26T22:30:25.284Z,35.82
2023-04-26T22:32:55.460Z,35.40
2023-04-26T22:35:23.463Z,35.34
2023-04-26T22:37:53.248Z,35.58
2023-04-26T22:40:23.978Z,35.60
2023-04-26T22:42:55.748Z,35.87
2023-04-26T22:45:22.613Z,35.34
2023-04-26T22:47:54.623Z,36.26
2023-04-26T22:50:21.782Z,36.50
2023-04-26T22:52:49.594Z,36.27
2023-04-26T22:55:19.108Z,36.65
2023-04-26T22:57:46.384Z,35.88
2023-04-26T23:00:15.022Z,36.35
2023-04-26T23:02:46.818Z,36.66
2023-04-26T23:05:13.751Z,36.29
2023-04-26T23:07:40.406Z,36.24
2023-04-26T23:10:10.123Z,36.31
2023-04-26T23:15:17.840Z,36.40
2023-04-26T23:17:47.380Z,36.86
2023-04-26T23:20:14.079Z,36.29
2023-04-26T23:22:45.958Z,37.19
2023-04-26T23:25:12.316Z,37.08
2023-04-26T23:27:41.320Z,36.38
2023-04-26T23:30:09.606Z,36.86
2023-04-26T23:32:36.438Z,36.72
2023-04-26T23:35:04.037Z,37.29
2023-04-26T23:37:36.043Z,37.36
2023-04-26T23:40:06.482Z,37.75
2023-04-26T23:42:32.876Z,37.00
2023-04-26T23:45:00.339Z,37.52
2023-04-26T23:47:30.858Z,37.81
2023-04-26T23:50:00.031Z,37.22
2023-04-26T23:52:26.645Z,37.63
2023-04-26T23:54:53.498Z,37.63
2023-04-26T23:57:19.874Z,37.49
2023-04-26T23:59:46.320Z,37.68
